createdAt,value
2018-11-25T00:00:09.931Z,2.80
2018-11-25T00:02:38.597Z,2.67
2018-11-25T00:05:08.215Z,9.10
2018-11-25T00:07:36.920Z,13.60
2018-11-25T00:10:06.302Z,5.57
2018-11-25T00:12:34.997Z,4.23
2018-11-25T00:15:03.811Z,2.80
2018-11-25T00:17:32.486Z,2.47
2018-11-25T00:20:01.171Z,2.53
2018-11-25T00:22:29.856Z,3.07
2018-11-25T00:24:58.527Z,1.93
2018-11-25T00:27:27.221Z,2.57
2018-11-25T00:29:55.896Z,3.03
2018-11-25T00:32:24.645Z,3.20
2018-11-25T00:34:53.342Z,2.70
2018-11-25T00:37:22.015Z,2.20
2018-11-25T00:39:50.704Z,2.50
2018-11-25T00:42:19.379Z,2.60
2018-11-25T00:44:48.062Z,2.70
2018-11-25T00:47:16.751Z,2.30
2018-11-25T00:49:45.448Z,2.27
2018-11-25T00:52:14.143Z,2.40
2018-11-25T00:54:42.822Z,2.10
2018-11-25T00:57:11.507Z,3.03
2018-11-25T00:59:40.192Z,2.47
2018-11-25T01:02:08.866Z,2.47
2018-11-25T01:04:37.550Z,3.23
2018-11-25T01:07:06.231Z,3.23
2018-11-25T01:09:34.919Z,2.53
2018-11-25T01:12:03.592Z,3.33
2018-11-25T01:14:32.175Z,3.13
2018-11-25T01:17:00.759Z,2.83
2018-11-25T01:19:29.438Z,3.07
2018-11-25T01:21:58.587Z,3.30
2018-11-25T01:24:27.301Z,3.43
2018-11-25T01:26:55.970Z,3.57
2018-11-25T01:29:24.649Z,4.00
2018-11-25T01:31:53.684Z,3.40
2018-11-25T01:34:22.364Z,3.13
2018-11-25T01:36:51.021Z,3.23
2018-11-25T01:39:19.702Z,3.27
2018-11-25T01:41:48.375Z,3.23
2018-11-25T01:44:17.050Z,3.33
2018-11-25T01:46:45.733Z,3.33
2018-11-25T01:49:14.423Z,3.57
2018-11-25T01:51:43.089Z,3.23
2018-11-25T01:54:11.774Z,2.97
2018-11-25T01:56:40.445Z,3.63
2018-11-25T01:59:09.130Z,4.23
2018-11-25T02:01:37.811Z,3.27
2018-11-25T02:04:06.481Z,3.80
2018-11-25T02:06:35.192Z,4.10
2018-11-25T02:09:04.869Z,4.37
2018-11-25T02:11:33.533Z,3.67
2018-11-25T02:14:02.221Z,3.90
2018-11-25T02:16:30.881Z,3.63
2018-11-25T02:18:59.581Z,4.10
2018-11-25T02:21:28.250Z,3.83
2018-11-25T02:23:56.931Z,3.43
2018-11-25T02:26:25.601Z,4.10
2018-11-25T02:28:54.383Z,3.70
2018-11-25T02:31:23.965Z,3.37
2018-11-25T02:33:52.659Z,4.20
2018-11-25T02:36:21.327Z,3.40
2018-11-25T02:38:50.017Z,4.20
2018-11-25T02:41:18.693Z,3.57
2018-11-25T02:43:47.361Z,4.23
2018-11-25T02:46:16.039Z,4.07
2018-11-25T02:48:44.778Z,3.87
2018-11-25T02:51:13.451Z,3.03
2018-11-25T02:53:42.139Z,4.20
2018-11-25T02:56:10.820Z,4.17
2018-11-25T02:58:39.513Z,5.20
2018-11-25T03:01:08.436Z,5.10
2018-11-25T03:03:37.455Z,4.00
2018-11-25T03:06:06.147Z,4.97
2018-11-25T03:08:34.829Z,3.93
2018-11-25T03:11:03.514Z,4.47
2018-11-25T03:13:32.191Z,4.43
2018-11-25T03:16:00.892Z,5.13
2018-11-25T03:18:29.571Z,4.63
2018-11-25T03:20:58.255Z,4.77
2018-11-25T03:23:26.926Z,4.35
2018-11-25T03:25:55.614Z,4.87
2018-11-25T03:28:24.823Z,4.83
2018-11-25T03:30:53.506Z,4.40
2018-11-25T03:33:22.188Z,4.57
2018-11-25T03:35:50.883Z,4.67
2018-11-25T03:38:19.569Z,5.67
2018-11-25T03:40:48.265Z,4.37
2018-11-25T03:43:16.948Z,4.13
2018-11-25T03:45:45.640Z,4.33
2018-11-25T03:48:14.328Z,5.03
2018-11-25T03:50:43.021Z,4.27
2018-11-25T03:53:11.747Z,4.37
2018-11-25T03:55:40.388Z,4.20
2018-11-25T03:58:09.080Z,3.73
2018-11-25T04:00:37.867Z,4.17
2018-11-25T04:03:06.543Z,4.30
2018-11-25T04:05:35.347Z,4.23
2018-11-25T04:08:04.020Z,4.10
2018-11-25T04:10:32.706Z,4.30
2018-11-25T04:13:01.384Z,3.63
2018-11-25T04:15:30.069Z,4.03
2018-11-25T04:17:58.738Z,3.43
2018-11-25T04:20:27.423Z,4.20
2018-11-25T04:22:56.093Z,3.20
2018-11-25T04:25:25.386Z,4.07
2018-11-25T04:27:54.058Z,4.07
2018-11-25T04:30:22.756Z,4.03
2018-11-25T04:32:51.451Z,4.07
2018-11-25T04:35:20.131Z,3.73
2018-11-25T04:37:48.851Z,5.30
2018-11-25T04:40:18.291Z,3.70
2018-11-25T04:42:46.982Z,4.37
2018-11-25T04:45:16.498Z,3.93
2018-11-25T04:47:45.838Z,3.97
2018-11-25T04:50:18.323Z,4.37
2018-11-25T04:52:47.056Z,4.63
2018-11-25T04:55:15.754Z,4.93
2018-11-25T04:57:49.413Z,3.60
2018-11-25T05:00:18.297Z,4.63
2018-11-25T05:02:47.064Z,4.10
2018-11-25T05:05:16.146Z,3.97
2018-11-25T05:07:44.843Z,4.50
2018-11-25T05:10:17.458Z,4.57
2018-11-25T05:12:46.118Z,4.30
2018-11-25T05:15:17.772Z,3.53
2018-11-25T05:17:46.459Z,3.37
2018-11-25T05:20:14.659Z,3.47
2018-11-25T05:22:41.832Z,3.60
2018-11-25T05:25:12.001Z,3.70
2018-11-25T05:27:39.214Z,4.30
2018-11-25T05:30:08.660Z,4.20
2018-11-25T05:32:35.962Z,3.80
2018-11-25T05:35:03.973Z,3.83
2018-11-25T05:37:31.131Z,3.67
2018-11-25T05:39:58.307Z,3.93
2018-11-25T05:42:25.464Z,3.63
2018-11-25T05:44:52.627Z,2.87
2018-11-25T05:47:19.784Z,3.20
2018-11-25T05:49:46.943Z,3.93
2018-11-25T05:52:14.106Z,3.53
2018-11-25T05:54:41.256Z,3.53
2018-11-25T05:57:08.418Z,3.67
2018-11-25T05:59:35.800Z,3.17
2018-11-25T06:02:02.994Z,3.50
2018-11-25T06:04:30.160Z,3.90
2018-11-25T06:06:57.327Z,3.43
2018-11-25T06:09:24.540Z,4.33
2018-11-25T06:11:51.687Z,3.70
2018-11-25T06:14:18.837Z,3.77
2018-11-25T06:16:46.004Z,3.20
2018-11-25T06:19:13.158Z,3.63
2018-11-25T06:21:40.336Z,3.57
2018-11-25T06:24:07.483Z,3.37
2018-11-25T06:26:34.660Z,3.53
2018-11-25T06:29:01.936Z,3.93
2018-11-25T06:31:29.107Z,3.77
2018-11-25T06:33:56.262Z,3.10
2018-11-25T06:36:23.443Z,3.60
2018-11-25T06:38:50.586Z,3.40
2018-11-25T06:41:17.738Z,3.10
2018-11-25T06:43:44.900Z,3.67
2018-11-25T06:46:12.252Z,3.47
2018-11-25T06:48:39.431Z,4.93
2018-11-25T06:51:06.705Z,5.10
2018-11-25T06:53:33.862Z,3.83
2018-11-25T06:56:01.039Z,3.07
2018-11-25T06:58:28.212Z,2.87
2018-11-25T07:00:55.418Z,2.63
2018-11-25T07:03:22.615Z,3.97
2018-11-25T07:05:49.916Z,3.43
2018-11-25T07:08:17.094Z,3.67
2018-11-25T07:10:44.320Z,3.43
2018-11-25T07:13:11.500Z,2.90
2018-11-25T07:15:38.674Z,2.83
2018-11-25T07:18:05.850Z,4.03
2018-11-25T07:20:33.032Z,3.13
2018-11-25T07:23:00.232Z,4.20
2018-11-25T07:25:27.387Z,3.20
2018-11-25T07:27:54.562Z,3.70
2018-11-25T07:30:28.512Z,3.80
2018-11-25T07:32:55.886Z,3.60
2018-11-25T07:35:24.034Z,4.10
2018-11-25T07:37:51.223Z,3.97
2018-11-25T07:40:19.295Z,4.33
2018-11-25T07:42:46.542Z,3.30
2018-11-25T07:45:14.936Z,3.33
2018-11-25T07:47:42.127Z,3.20
2018-11-25T07:50:11.374Z,3.43
2018-11-25T07:52:38.749Z,3.43
2018-11-25T07:55:12.132Z,3.10
2018-11-25T07:57:39.478Z,3.37
2018-11-25T08:00:12.859Z,4.23
2018-11-25T08:02:41.647Z,3.80
2018-11-25T08:05:08.600Z,3.00
2018-11-25T08:07:35.976Z,3.03
2018-11-25T08:10:03.607Z,3.13
2018-11-25T08:12:30.775Z,2.80
2018-11-25T08:14:57.948Z,2.73
2018-11-25T08:17:25.128Z,2.20
2018-11-25T08:19:52.300Z,3.17
2018-11-25T08:22:19.482Z,2.80
2018-11-25T08:24:46.638Z,2.47
2018-11-25T08:27:13.819Z,2.30
2018-11-25T08:29:40.995Z,2.03
2018-11-25T08:32:08.182Z,3.10
2018-11-25T08:34:35.375Z,2.67
2018-11-25T08:37:02.581Z,2.83
2018-11-25T08:39:29.735Z,3.03
2018-11-25T08:41:56.910Z,3.00
2018-11-25T08:44:24.090Z,6.20
2018-11-25T08:46:51.278Z,5.70
2018-11-25T08:49:18.441Z,5.43
2018-11-25T08:51:45.615Z,3.63
2018-11-25T08:54:12.770Z,3.40
2018-11-25T08:56:39.938Z,3.93
2018-11-25T08:59:07.098Z,3.20
2018-11-25T09:01:34.254Z,3.43
2018-11-25T09:04:01.420Z,4.07
2018-11-25T09:06:28.603Z,4.43
2018-11-25T09:08:55.766Z,6.07
2018-11-25T09:11:22.928Z,6.87
2018-11-25T09:13:50.086Z,6.13
2018-11-25T09:16:17.310Z,9.83
2018-11-25T09:18:44.483Z,10.67
2018-11-25T09:21:11.622Z,10.67
2018-11-25T09:23:38.784Z,10.03
2018-11-25T09:26:05.948Z,7.43
2018-11-25T09:28:33.112Z,7.03
2018-11-25T09:31:00.267Z,5.87
2018-11-25T09:33:27.432Z,10.50
2018-11-25T09:35:54.634Z,25.33
2018-11-25T09:38:21.791Z,59.87
2018-11-25T09:40:48.927Z,21.23
2018-11-25T09:43:16.083Z,5.90
2018-11-25T09:45:43.247Z,10.13
2018-11-25T09:48:10.418Z,6.43
2018-11-25T09:50:37.570Z,24.83
2018-11-25T09:53:04.761Z,18.87
2018-11-25T09:55:31.927Z,13.73
2018-11-25T09:57:59.999Z,15.93
2018-11-25T10:00:30.410Z,8.00
2018-11-25T10:02:57.590Z,5.90
2018-11-25T10:05:24.750Z,6.20
2018-11-25T10:07:51.918Z,5.77
2018-11-25T10:10:20.131Z,5.77
2018-11-25T10:12:47.286Z,8.00
2018-11-25T10:15:17.404Z,6.57
2018-11-25T10:17:44.612Z,4.77
2018-11-25T10:20:14.634Z,14.63
2018-11-25T10:22:41.804Z,14.53
2018-11-25T10:25:09.991Z,5.03
2018-11-25T10:27:37.172Z,5.00
2018-11-25T10:30:08.596Z,4.60
2018-11-25T10:32:35.763Z,4.57
2018-11-25T10:35:02.962Z,5.07
2018-11-25T10:37:30.115Z,4.43
2018-11-25T10:39:57.254Z,4.53
2018-11-25T10:42:24.430Z,5.33
2018-11-25T10:44:51.567Z,6.07
2018-11-25T10:47:18.739Z,23.77
2018-11-25T10:49:45.894Z,11.57
2018-11-25T10:52:13.066Z,14.87
2018-11-25T10:54:40.232Z,8.80
2018-11-25T10:57:07.402Z,41.60
2018-11-25T10:59:34.558Z,36.47
2018-11-25T11:02:07.608Z,34.87
2018-11-25T11:04:40.612Z,43.30
2018-11-25T11:07:13.540Z,53.50
2018-11-25T11:09:40.704Z,26.87
2018-11-25T11:12:07.868Z,18.43
2018-11-25T11:14:35.039Z,8.37
2018-11-25T11:17:02.188Z,10.70
2018-11-25T11:19:29.342Z,6.50
2018-11-25T11:21:56.488Z,4.83
2018-11-25T11:24:23.652Z,5.07
2018-11-25T11:26:50.799Z,4.43
2018-11-25T11:29:17.951Z,4.40
2018-11-25T11:31:45.087Z,4.37
2018-11-25T11:34:12.264Z,4.93
2018-11-25T11:36:39.490Z,5.50
2018-11-25T11:39:08.364Z,5.03
2018-11-25T11:41:35.528Z,4.47
2018-11-25T11:44:02.691Z,13.17
2018-11-25T11:46:29.888Z,7.40
2018-11-25T11:48:57.052Z,5.93
2018-11-25T11:51:26.019Z,9.10
2018-11-25T11:53:51.412Z,9.97
2018-11-25T11:56:18.567Z,7.30
2018-11-25T11:58:45.733Z,7.70
2018-11-25T12:01:12.887Z,7.47
2018-11-25T12:03:40.068Z,6.70
2018-11-25T12:06:07.228Z,13.20
2018-11-25T12:08:34.402Z,8.40
2018-11-25T12:11:01.567Z,6.63
2018-11-25T12:13:28.770Z,7.20
2018-11-25T12:15:55.935Z,6.73
2018-11-25T12:18:23.151Z,6.80
2018-11-25T12:20:50.308Z,7.73
2018-11-25T12:23:17.488Z,7.30
2018-11-25T12:25:44.655Z,6.63
2018-11-25T12:28:11.835Z,6.53
2018-11-25T12:30:39.017Z,8.23
2018-11-25T12:33:06.199Z,5.83
2018-11-25T12:35:33.371Z,7.10
2018-11-25T12:38:00.554Z,9.30
2018-11-25T12:40:27.726Z,8.77
2018-11-25T12:42:56.207Z,7.67
2018-11-25T12:45:23.524Z,7.17
2018-11-25T12:47:50.703Z,6.47
2018-11-25T12:50:19.296Z,6.70
2018-11-25T12:52:46.509Z,6.40
2018-11-25T12:55:14.827Z,6.23
2018-11-25T12:57:43.164Z,6.63
2018-11-25T13:00:16.725Z,6.77
2018-11-25T13:02:43.900Z,6.30
2018-11-25T13:05:11.061Z,5.80
2018-11-25T13:07:38.278Z,5.57
2018-11-25T13:10:06.104Z,6.57
2018-11-25T13:12:33.292Z,13.73
2018-11-25T13:15:00.518Z,8.40
2018-11-25T13:17:27.679Z,6.70
2018-11-25T13:19:54.844Z,6.60
2018-11-25T13:22:21.995Z,7.33
2018-11-25T13:24:49.175Z,5.97
2018-11-25T13:27:16.348Z,6.63
2018-11-25T13:29:43.523Z,6.23
2018-11-25T13:32:10.707Z,7.40
2018-11-25T13:34:37.872Z,7.40
2018-11-25T13:37:05.163Z,8.37
2018-11-25T13:39:32.339Z,7.80
2018-11-25T13:41:59.515Z,7.53
2018-11-25T13:44:26.686Z,7.27
2018-11-25T13:46:54.036Z,8.23
2018-11-25T13:49:21.226Z,8.27
2018-11-25T13:51:48.402Z,8.00
2018-11-25T13:54:15.583Z,8.07
2018-11-25T13:56:42.756Z,8.97
2018-11-25T13:59:09.924Z,9.73
2018-11-25T14:01:37.092Z,10.20
2018-11-25T14:04:04.507Z,10.47
2018-11-25T14:06:31.647Z,9.80
2018-11-25T14:08:58.803Z,11.93
2018-11-25T14:11:25.968Z,12.27
2018-11-25T14:13:53.137Z,11.00
2018-11-25T14:16:20.479Z,10.80
2018-11-25T14:18:47.666Z,15.33
2018-11-25T14:21:15.763Z,19.43
2018-11-25T14:23:41.993Z,14.00
2018-11-25T14:26:12.752Z,14.23
2018-11-25T14:28:39.936Z,13.63
2018-11-25T14:31:07.152Z,17.57
2018-11-25T14:33:34.349Z,18.77
2018-11-25T14:36:01.537Z,18.03
2018-11-25T14:38:28.720Z,15.43
2018-11-25T14:40:55.921Z,15.23
2018-11-25T14:43:23.075Z,18.17
2018-11-25T14:45:50.263Z,15.43
2018-11-25T14:48:17.433Z,33.43
2018-11-25T14:50:44.613Z,23.37
2018-11-25T14:53:11.763Z,20.57
2018-11-25T14:55:38.967Z,15.93
2018-11-25T14:58:06.143Z,15.70
2018-11-25T15:00:33.318Z,20.10
2018-11-25T15:03:02.020Z,17.30
2018-11-25T15:05:45.640Z,12.40
2018-11-25T15:08:14.751Z,11.57
2018-11-25T15:10:41.944Z,11.53
2018-11-25T15:13:09.132Z,10.87
2018-11-25T15:15:36.404Z,10.17
2018-11-25T15:18:03.627Z,10.47
2018-11-25T15:20:30.833Z,9.97
2018-11-25T15:23:00.003Z,9.13
2018-11-25T15:25:29.910Z,9.70
2018-11-25T15:27:58.185Z,10.97
2018-11-25T15:30:24.270Z,11.03
2018-11-25T15:32:51.456Z,10.80
2018-11-25T15:35:18.638Z,10.07
2018-11-25T15:37:47.270Z,9.70
2018-11-25T15:40:17.154Z,9.33
2018-11-25T15:42:44.312Z,9.83
2018-11-25T15:45:11.505Z,10.23
2018-11-25T15:47:40.132Z,10.73
2018-11-25T15:50:10.019Z,9.80
2018-11-25T15:52:37.206Z,9.67
2018-11-25T15:55:07.582Z,10.00
2018-11-25T15:57:34.760Z,9.53
2018-11-25T16:00:01.953Z,10.00
2018-11-25T16:02:29.242Z,9.33
2018-11-25T16:04:56.418Z,10.27
2018-11-25T16:07:23.607Z,9.03
2018-11-25T16:09:50.805Z,8.90
2018-11-25T16:12:17.986Z,9.17
2018-11-25T16:14:45.169Z,8.73
2018-11-25T16:17:12.375Z,9.17
2018-11-25T16:19:39.560Z,8.77
2018-11-25T16:22:07.256Z,9.33
2018-11-25T16:24:34.422Z,9.63
2018-11-25T16:27:01.614Z,8.30
2018-11-25T16:29:28.836Z,10.90
2018-11-25T16:31:56.012Z,10.90
2018-11-25T16:34:23.182Z,10.97
2018-11-25T16:36:50.371Z,9.77
2018-11-25T16:39:17.580Z,10.10
2018-11-25T16:41:44.795Z,10.27
2018-11-25T16:44:11.986Z,13.60
2018-11-25T16:46:39.225Z,9.87
2018-11-25T16:49:06.431Z,9.63
2018-11-25T16:51:33.649Z,9.63
2018-11-25T16:54:00.844Z,13.53
2018-11-25T16:56:28.043Z,11.50
2018-11-25T16:58:55.254Z,15.77
2018-11-25T17:01:22.504Z,18.67
2018-11-25T17:03:49.696Z,13.67
2018-11-25T17:06:16.862Z,10.73
2018-11-25T17:08:44.488Z,8.70
2018-11-25T17:11:11.740Z,9.03
2018-11-25T17:13:39.028Z,10.83
2018-11-25T17:16:06.774Z,11.10
2018-11-25T17:18:33.984Z,11.00
2018-11-25T17:21:01.188Z,9.07
2018-11-25T17:23:28.387Z,10.90
2018-11-25T17:25:55.564Z,9.00
2018-11-25T17:28:22.718Z,9.60
2018-11-25T17:30:49.912Z,9.17
2018-11-25T17:33:17.103Z,10.80
2018-11-25T17:35:44.348Z,9.70
2018-11-25T17:38:11.551Z,10.10
2018-11-25T17:40:38.774Z,10.80
2018-11-25T17:43:08.260Z,8.87
2018-11-25T17:45:35.470Z,10.33
2018-11-25T17:48:02.676Z,9.47
2018-11-25T17:50:30.055Z,10.17
2018-11-25T17:52:57.272Z,10.90
2018-11-25T17:55:25.838Z,9.87
2018-11-25T17:57:53.014Z,11.90
2018-11-25T18:00:36.117Z,11.57
2018-11-25T18:03:04.016Z,12.47
2018-11-25T18:05:38.461Z,15.30
2018-11-25T18:07:58.414Z,19.87
2018-11-25T18:10:25.596Z,13.80
2018-11-25T18:12:52.774Z,10.67
2018-11-25T18:15:20.589Z,9.30
2018-11-25T18:17:57.608Z,8.70
2018-11-25T18:20:27.149Z,8.17
2018-11-25T18:22:54.346Z,9.23
2018-11-25T18:25:21.512Z,9.00
2018-11-25T18:27:48.682Z,8.17
2018-11-25T18:30:16.322Z,11.03
2018-11-25T18:32:44.026Z,9.70
2018-11-25T18:35:11.260Z,11.83
2018-11-25T18:37:38.448Z,13.83
2018-11-25T18:40:09.966Z,11.63
2018-11-25T18:42:37.138Z,12.70
2018-11-25T18:45:07.143Z,11.63
2018-11-25T18:47:34.460Z,12.47
2018-11-25T18:50:01.732Z,18.33
2018-11-25T18:52:28.987Z,24.40
2018-11-25T18:54:55.308Z,20.33
2018-11-25T18:57:22.462Z,16.27
2018-11-25T18:59:49.617Z,15.40
2018-11-25T19:02:20.350Z,15.80
2018-11-25T19:04:48.319Z,17.13
2018-11-25T19:07:15.500Z,16.53
2018-11-25T19:09:42.710Z,18.43
2018-11-25T19:12:11.100Z,19.40
2018-11-25T19:14:38.258Z,20.23
2018-11-25T19:17:05.520Z,22.83
2018-11-25T19:19:32.678Z,19.60
2018-11-25T19:21:59.915Z,16.63
2018-11-25T19:24:27.064Z,16.60
2018-11-25T19:26:54.268Z,16.50
2018-11-25T19:29:21.454Z,18.07
2018-11-25T19:31:48.621Z,16.90
2018-11-25T19:34:15.792Z,17.80
2018-11-25T19:36:43.012Z,16.90
2018-11-25T19:39:10.172Z,16.20
2018-11-25T19:41:37.351Z,15.93
2018-11-25T19:44:05.144Z,16.50
2018-11-25T19:46:32.382Z,16.03
2018-11-25T19:48:59.548Z,16.90
2018-11-25T19:51:26.737Z,14.83
2018-11-25T19:53:53.898Z,17.57
2018-11-25T19:56:21.066Z,16.10
2018-11-25T19:58:48.237Z,15.30
2018-11-25T20:01:15.424Z,14.63
2018-11-25T20:03:42.607Z,17.30
2018-11-25T20:06:09.772Z,15.97
2018-11-25T20:08:36.943Z,15.77
2018-11-25T20:11:04.214Z,15.90
2018-11-25T20:13:31.395Z,16.23
2018-11-25T20:16:04.340Z,15.47
2018-11-25T20:18:31.534Z,16.37
2018-11-25T20:21:04.566Z,13.43
2018-11-25T20:23:31.746Z,10.67
2018-11-25T20:25:58.903Z,10.57
2018-11-25T20:28:26.079Z,10.83
2018-11-25T20:30:53.239Z,11.83
2018-11-25T20:33:26.124Z,10.53
2018-11-25T20:35:53.291Z,11.60
2018-11-25T20:38:26.295Z,13.27
2018-11-25T20:40:53.466Z,12.67
2018-11-25T20:43:20.647Z,10.93
2018-11-25T20:45:53.696Z,14.77
2018-11-25T20:48:20.867Z,14.37
2018-11-25T20:50:48.159Z,15.60
2018-11-25T20:53:21.225Z,14.33
2018-11-25T20:55:48.380Z,14.30
2018-11-25T20:58:15.558Z,11.87
2018-11-25T21:00:42.727Z,10.90
2018-11-25T21:03:11.007Z,9.10
2018-11-25T21:05:38.318Z,8.83
2018-11-25T21:08:06.122Z,9.47
2018-11-25T21:10:33.348Z,8.93
2018-11-25T21:13:00.532Z,9.77
2018-11-25T21:15:27.698Z,9.97
2018-11-25T21:17:54.848Z,8.93
2018-11-25T21:20:23.454Z,9.53
2018-11-25T21:22:50.624Z,9.20
2018-11-25T21:25:19.772Z,9.73
2018-11-25T21:27:46.973Z,10.13
2018-11-25T21:30:15.183Z,9.93
2018-11-25T21:32:42.832Z,10.20
2018-11-25T21:35:10.992Z,9.93
2018-11-25T21:37:38.172Z,11.07
2018-11-25T21:40:10.124Z,11.27
2018-11-25T21:42:37.473Z,11.57
2018-11-25T21:45:05.822Z,11.43
2018-11-25T21:47:33.009Z,10.97
2018-11-25T21:50:00.171Z,11.60
2018-11-25T21:52:27.362Z,12.97
2018-11-25T21:54:54.545Z,12.33
2018-11-25T21:57:21.813Z,13.70
2018-11-25T21:59:48.991Z,13.17
2018-11-25T22:02:16.167Z,13.53
2018-11-25T22:04:43.367Z,12.40
2018-11-25T22:07:10.534Z,12.40
2018-11-25T22:09:37.710Z,12.13
2018-11-25T22:12:04.891Z,12.60
2018-11-25T22:14:32.062Z,12.43
2018-11-25T22:16:59.211Z,13.80
2018-11-25T22:19:27.745Z,13.00
2018-11-25T22:21:56.818Z,13.53
2018-11-25T22:24:24.028Z,12.13
2018-11-25T22:26:51.196Z,10.40
2018-11-25T22:29:18.384Z,11.93
2018-11-25T22:31:45.627Z,10.60
2018-11-25T22:34:12.790Z,12.47
2018-11-25T22:36:40.051Z,10.17
2018-11-25T22:39:08.642Z,12.27
2018-11-25T22:41:35.870Z,11.50
2018-11-25T22:44:03.116Z,10.17
2018-11-25T22:46:30.278Z,13.63
2018-11-25T22:48:57.451Z,10.97
2018-11-25T22:51:24.612Z,12.13
2018-11-25T22:53:51.790Z,13.53
2018-11-25T22:56:18.941Z,12.07
2018-11-25T22:58:46.104Z,11.47
2018-11-25T23:01:13.272Z,11.80
2018-11-25T23:03:40.464Z,12.43
2018-11-25T23:06:19.356Z,12.93
2018-11-25T23:08:46.537Z,13.97
2018-11-25T23:11:13.714Z,13.80
2018-11-25T23:13:40.900Z,14.57
2018-11-25T23:16:08.064Z,15.90
2018-11-25T23:18:35.238Z,13.53
2018-11-25T23:21:02.403Z,19.73
2018-11-25T23:23:29.578Z,21.53
2018-11-25T23:25:56.771Z,27.87
2018-11-25T23:28:23.983Z,29.70
2018-11-25T23:30:51.159Z,31.13
2018-11-25T23:33:18.400Z,22.30
2018-11-25T23:35:45.554Z,16.40
2018-11-25T23:38:12.716Z,14.83
2018-11-25T23:40:39.892Z,13.23
2018-11-25T23:43:07.258Z,13.57
2018-11-25T23:45:34.432Z,14.63
2018-11-25T23:48:01.624Z,13.33
2018-11-25T23:50:28.828Z,13.53
2018-11-25T23:52:56.011Z,14.73
2018-11-25T23:55:23.224Z,12.50
2018-11-25T23:57:50.417Z,15.17
